Astra Nomen — S7L2957 — position and weather

sailwx.info

Track history (hours):
 
Tides and Currents Weather Stations Pressure Air Temp Water Temp Dewpoint Dewpoint Depression Visibility Wind Speed Wind Dir Waves Ship Positions

Astra Nomen

Last reported at 2017-Nov-19 13:36 UTC. Time now 2017-Nov-23 03:58 UTC.
Position N 28°08' W 015°26'.

Length 11 m.

Type: Sailing vessel. MMSI: 664091000.

Date/timePositionNaut miles runAvg speedWind from/ knotsBaromVisibWave heightAir tempDewpointWater temp
2017-Nov-19 13:36N 28°08' W 015°26'0 1.5
2017-Nov-19 13:29N 28°08' W 015°25'2 2.9
2017-Nov-19 12:58N 28°06' W 015°25'2 3.3
2017-Nov-19 12:30N 28°08' W 015°26'0 0.0
2017-Nov-17 22:38N 28°08' W 015°26'0 0.0
2017-Nov-17 22:23N 28°08' W 015°26'2 4.2
2017-Nov-17 21:56N 28°06' W 015°24'3 5.1
2017-Nov-17 21:26N 28°04' W 015°23'3 5.2
2017-Nov-17 20:56N 28°01' W 015°22'3 4.9
2017-Nov-17 20:25N 27°59' W 015°21'2 4.2
2017-Nov-17 19:55N 27°57' W 015°20'2 4.4
2017-Nov-17 19:30N 27°55' W 015°20'  
2017-Nov-11 13:50N 28°12' W 016°16'2 6.1
2017-Nov-11 13:30N 28°14' W 016°16'3 5.6
2017-Nov-11 12:58N 28°16' W 016°15'2 5.1
2017-Nov-11 12:30N 28°19' W 016°14'3 5.2
2017-Nov-11 12:00N 28°21' W 016°14'3 5.1
2017-Nov-11 11:30N 28°24' W 016°14'2 4.9
2017-Nov-11 11:00N 28°26' W 016°13'3 5.2
2017-Nov-11 10:29N 28°29' W 016°12'24 1.2
2017-Nov-10 14:06N 28°21' W 015°46'1 8.7
2017-Nov-10 14:00N 28°21' W 015°45'4 8.6
2017-Nov-10 13:30N 28°19' W 015°41'4 8.4
2017-Nov-10 13:00N 28°17' W 015°36'4 7.9
2017-Nov-10 12:30N 28°16' W 015°32'4 7.1
2017-Nov-10 11:58N 28°14' W 015°29'3 7.1
2017-Nov-10 11:29N 28°12' W 015°25'3 6.6
2017-Nov-10 10:58N 28°10' W 015°23'3 5.9
2017-Nov-10 10:28N 28°07' W 015°21'1 2.4
2017-Nov-10 09:57N 28°06' W 015°23'2 3.4
2017-Nov-10 09:27N 28°07' W 015°25'1 2.1
2017-Nov-10 08:52N 28°08' W 015°26'0 0.0
2017-Nov-10 08:22N 28°08' W 015°26'  
Track history (hours):
 
Tides and Currents Weather Stations Pressure Air Temp Water Temp Dewpoint Dewpoint Depression Visibility Wind Speed Wind Dir Waves Ship Positions

Astra Nomen

Last reported at 2017-Nov-19 13:36 UTC. Time now 2017-Nov-23 03:58 UTC.
Position N 28°08' W 015°26'.

Length 11 m.

Type: Sailing vessel. MMSI: 664091000.

Date/timePositionNaut miles runAvg speedWind from/ knotsBaromVisibWave heightAir tempDewpointWater temp
2017-Nov-19 13:36N 28°08' W 015°26'0 1.5
2017-Nov-19 13:29N 28°08' W 015°25'2 2.9
2017-Nov-19 12:58N 28°06' W 015°25'2 3.3
2017-Nov-19 12:30N 28°08' W 015°26'0 0.0
2017-Nov-17 22:38N 28°08' W 015°26'0 0.0
2017-Nov-17 22:23N 28°08' W 015°26'2 4.2
2017-Nov-17 21:56N 28°06' W 015°24'3 5.1
2017-Nov-17 21:26N 28°04' W 015°23'3 5.2
2017-Nov-17 20:56N 28°01' W 015°22'3 4.9
2017-Nov-17 20:25N 27°59' W 015°21'2 4.2
2017-Nov-17 19:55N 27°57' W 015°20'2 4.4
2017-Nov-17 19:30N 27°55' W 015°20'  
2017-Nov-11 13:50N 28°12' W 016°16'2 6.1
2017-Nov-11 13:30N 28°14' W 016°16'3 5.6
2017-Nov-11 12:58N 28°16' W 016°15'2 5.1
2017-Nov-11 12:30N 28°19' W 016°14'3 5.2
2017-Nov-11 12:00N 28°21' W 016°14'3 5.1
2017-Nov-11 11:30N 28°24' W 016°14'2 4.9
2017-Nov-11 11:00N 28°26' W 016°13'3 5.2
2017-Nov-11 10:29N 28°29' W 016°12'24 1.2
2017-Nov-10 14:06N 28°21' W 015°46'1 8.7
2017-Nov-10 14:00N 28°21' W 015°45'4 8.6
2017-Nov-10 13:30N 28°19' W 015°41'4 8.4
2017-Nov-10 13:00N 28°17' W 015°36'4 7.9
2017-Nov-10 12:30N 28°16' W 015°32'4 7.1
2017-Nov-10 11:58N 28°14' W 015°29'3 7.1
2017-Nov-10 11:29N 28°12' W 015°25'3 6.6
2017-Nov-10 10:58N 28°10' W 015°23'3 5.9
2017-Nov-10 10:28N 28°07' W 015°21'1 2.4
2017-Nov-10 09:57N 28°06' W 015°23'2 3.4
2017-Nov-10 09:27N 28°07' W 015°25'1 2.1
2017-Nov-10 08:52N 28°08' W 015°26'0 0.0
2017-Nov-10 08:22N 28°08' W 015°26'  

Dump ship's entire track history